sensor_id;sensor_type;location;lat;lon;timestamp;temperature;humidity
7129;DHT22;3606;52.930;8.644;2024-02-21T00:00:36;9.20;99.90
7129;DHT22;3606;52.930;8.644;2024-02-21T00:03:04;9.20;99.90
7129;DHT22;3606;52.930;8.644;2024-02-21T00:05:30;9.20;99.90
7129;DHT22;3606;52.930;8.644;2024-02-21T00:07:57;9.20;99.90
7129;DHT22;3606;52.930;8.644;2024-02-21T00:10:23;9.20;99.90
7129;DHT22;3606;52.930;8.644;2024-02-21T00:12:48;9.20;99.90
7129;DHT22;3606;52.930;8.644;2024-02-21T00:15:14;9.20;99.90
7129;DHT22;3606;52.930;8.644;2024-02-21T00:17:40;9.20;99.90
7129;DHT22;3606;52.930;8.644;2024-02-21T00:20:07;9.20;99.90
7129;DHT22;3606;52.930;8.644;2024-02-21T00:22:32;9.30;99.90
7129;DHT22;3606;52.930;8.644;2024-02-21T00:24:59;9.20;99.90
7129;DHT22;3606;52.930;8.644;2024-02-21T00:27:25;9.30;99.90
7129;DHT22;3606;52.930;8.644;2024-02-21T00:29:51;9.30;99.90
7129;DHT22;3606;52.930;8.644;2024-02-21T00:32:16;9.30;99.90
7129;DHT22;3606;52.930;8.644;2024-02-21T00:34:42;9.30;99.90
7129;DHT22;3606;52.930;8.644;2024-02-21T00:37:07;9.30;99.90
7129;DHT22;3606;52.930;8.644;2024-02-21T00:39:33;9.30;99.90
7129;DHT22;3606;52.930;8.644;2024-02-21T01:03:48;9.00;99.90
7129;DHT22;3606;52.930;8.644;2024-02-21T02:02:55;8.90;99.90
7129;DHT22;3606;52.930;8.644;2024-02-21T02:12:09;9.00;99.90
7129;DHT22;3606;52.930;8.644;2024-02-21T02:14:35;9.00;99.90
7129;DHT22;3606;52.930;8.644;2024-02-21T02:17:00;9.00;99.90
7129;DHT22;3606;52.930;8.644;2024-02-21T02:19:26;9.00;99.90
7129;DHT22;3606;52.930;8.644;2024-02-21T02:22:02;9.10;99.90
7129;DHT22;3606;52.930;8.644;2024-02-21T02:24:29;9.10;99.90
7129;DHT22;3606;52.930;8.644;2024-02-21T02:26:55;9.20;99.90
7129;DHT22;3606;52.930;8.644;2024-02-21T02:29:20;9.20;99.90
7129;DHT22;3606;52.930;8.644;2024-02-21T02:31:46;9.20;99.90
7129;DHT22;3606;52.930;8.644;2024-02-21T02:34:12;9.20;99.90
7129;DHT22;3606;52.930;8.644;2024-02-21T02:36:38;9.30;99.90
7129;DHT22;3606;52.930;8.644;2024-02-21T02:39:03;9.20;99.90
7129;DHT22;3606;52.930;8.644;2024-02-21T02:41:29;9.30;99.90
7129;DHT22;3606;52.930;8.644;2024-02-21T02:43:54;9.30;99.90
7129;DHT22;3606;52.930;8.644;2024-02-21T02:46:20;9.20;99.90
7129;DHT22;3606;52.930;8.644;2024-02-21T02:48:45;9.30;99.90
7129;DHT22;3606;52.930;8.644;2024-02-21T02:51:11;9.30;99.90
7129;DHT22;3606;52.930;8.644;2024-02-21T02:53:37;9.30;99.90
7129;DHT22;3606;52.930;8.644;2024-02-21T02:56:02;9.30;99.90
7129;DHT22;3606;52.930;8.644;2024-02-21T02:58:28;9.30;99.90
7129;DHT22;3606;52.930;8.644;2024-02-21T03:00:54;9.30;99.90
7129;DHT22;3606;52.930;8.644;2024-02-21T03:03:19;9.40;99.90
7129;DHT22;3606;52.930;8.644;2024-02-21T03:05:45;9.40;99.90
7129;DHT22;3606;52.930;8.644;2024-02-21T03:08:11;9.40;99.90
7129;DHT22;3606;52.930;8.644;2024-02-21T03:10:37;9.40;99.90
7129;DHT22;3606;52.930;8.644;2024-02-21T03:13:02;9.40;99.90
7129;DHT22;3606;52.930;8.644;2024-02-21T03:15:29;9.40;99.90
7129;DHT22;3606;52.930;8.644;2024-02-21T03:17:54;9.40;99.90
7129;DHT22;3606;52.930;8.644;2024-02-21T03:20:20;9.40;99.90
7129;DHT22;3606;52.930;8.644;2024-02-21T03:22:45;9.50;99.90
7129;DHT22;3606;52.930;8.644;2024-02-21T03:25:11;9.50;99.90
7129;DHT22;3606;52.930;8.644;2024-02-21T03:27:38;9.40;99.90
7129;DHT22;3606;52.930;8.644;2024-02-21T03:30:04;9.40;99.90
7129;DHT22;3606;52.930;8.644;2024-02-21T03:32:30;9.40;99.90
7129;DHT22;3606;52.930;8.644;2024-02-21T03:34:56;9.40;99.90
7129;DHT22;3606;52.930;8.644;2024-02-21T03:37:21;9.40;99.90
7129;DHT22;3606;52.930;8.644;2024-02-21T03:39:47;9.40;99.90
7129;DHT22;3606;52.930;8.644;2024-02-21T03:42:13;9.30;99.90
7129;DHT22;3606;52.930;8.644;2024-02-21T03:44:38;9.30;99.90
7129;DHT22;3606;52.930;8.644;2024-02-21T03:47:04;9.20;99.90
7129;DHT22;3606;52.930;8.644;2024-02-21T03:49:30;9.20;99.90
7129;DHT22;3606;52.930;8.644;2024-02-21T03:51:55;9.10;99.90
7129;DHT22;3606;52.930;8.644;2024-02-21T03:54:21;9.10;99.90
7129;DHT22;3606;52.930;8.644;2024-02-21T03:56:47;9.00;99.90
7129;DHT22;3606;52.930;8.644;2024-02-21T03:59:16;9.00;99.90
7129;DHT22;3606;52.930;8.644;2024-02-21T04:01:41;9.00;99.90
7129;DHT22;3606;52.930;8.644;2024-02-21T04:04:07;9.00;99.90
7129;DHT22;3606;52.930;8.644;2024-02-21T04:06:33;9.00;99.90
7129;DHT22;3606;52.930;8.644;2024-02-21T04:08:58;9.00;99.90
7129;DHT22;3606;52.930;8.644;2024-02-21T04:11:24;9.00;99.90
7129;DHT22;3606;52.930;8.644;2024-02-21T04:13:50;9.00;99.90
7129;DHT22;3606;52.930;8.644;2024-02-21T04:16:17;8.90;99.90
7129;DHT22;3606;52.930;8.644;2024-02-21T04:18:43;8.90;99.90
7129;DHT22;3606;52.930;8.644;2024-02-21T04:21:09;8.90;99.90
7129;DHT22;3606;52.930;8.644;2024-02-21T04:23:35;8.90;99.90
7129;DHT22;3606;52.930;8.644;2024-02-21T04:26:00;8.90;99.90
7129;DHT22;3606;52.930;8.644;2024-02-21T04:28:26;8.90;99.90
7129;DHT22;3606;52.930;8.644;2024-02-21T04:30:52;8.90;99.90
7129;DHT22;3606;52.930;8.644;2024-02-21T04:33:18;8.90;99.90
7129;DHT22;3606;52.930;8.644;2024-02-21T04:35:44;8.90;99.90
7129;DHT22;3606;52.930;8.644;2024-02-21T04:38:09;8.90;99.90
7129;DHT22;3606;52.930;8.644;2024-02-21T04:40:35;8.80;99.90
7129;DHT22;3606;52.930;8.644;2024-02-21T04:43:01;8.90;99.90
7129;DHT22;3606;52.930;8.644;2024-02-21T04:45:26;8.80;99.90
7129;DHT22;3606;52.930;8.644;2024-02-21T04:47:52;8.80;99.90
7129;DHT22;3606;52.930;8.644;2024-02-21T04:50:17;8.80;99.90
7129;DHT22;3606;52.930;8.644;2024-02-21T04:52:43;8.80;99.90
7129;DHT22;3606;52.930;8.644;2024-02-21T04:55:09;8.80;99.90
7129;DHT22;3606;52.930;8.644;2024-02-21T04:57:34;8.80;99.90
7129;DHT22;3606;52.930;8.644;2024-02-21T05:00:00;8.80;99.90
7129;DHT22;3606;52.930;8.644;2024-02-21T05:02:26;8.80;99.90
7129;DHT22;3606;52.930;8.644;2024-02-21T05:04:52;8.80;99.90
7129;DHT22;3606;52.930;8.644;2024-02-21T05:07:18;8.80;99.90
7129;DHT22;3606;52.930;8.644;2024-02-21T05:09:45;8.90;99.90
7129;DHT22;3606;52.930;8.644;2024-02-21T05:12:11;8.90;99.90
7129;DHT22;3606;52.930;8.644;2024-02-21T05:14:37;8.80;99.90
7129;DHT22;3606;52.930;8.644;2024-02-21T05:17:04;8.90;99.90
7129;DHT22;3606;52.930;8.644;2024-02-21T05:19:29;8.80;99.90
7129;DHT22;3606;52.930;8.644;2024-02-21T05:21:55;8.80;99.90
7129;DHT22;3606;52.930;8.644;2024-02-21T05:24:21;8.80;99.90
7129;DHT22;3606;52.930;8.644;2024-02-21T05:26:46;8.80;99.90
7129;DHT22;3606;52.930;8.644;2024-02-21T05:29:12;8.80;99.90
7129;DHT22;3606;52.930;8.644;2024-02-21T05:34:19;8.80;99.90
7129;DHT22;3606;52.930;8.644;2024-02-21T05:36:46;8.90;99.90
7129;DHT22;3606;52.930;8.644;2024-02-21T05:39:15;8.80;99.90
7129;DHT22;3606;52.930;8.644;2024-02-21T05:41:41;8.80;99.90
7129;DHT22;3606;52.930;8.644;2024-02-21T05:44:07;8.90;99.90
7129;DHT22;3606;52.930;8.644;2024-02-21T05:46:33;8.80;99.90
7129;DHT22;3606;52.930;8.644;2024-02-21T05:48:59;8.90;99.90
7129;DHT22;3606;52.930;8.644;2024-02-21T05:51:24;8.80;99.90
7129;DHT22;3606;52.930;8.644;2024-02-21T05:53:50;8.80;99.90
7129;DHT22;3606;52.930;8.644;2024-02-21T05:56:15;8.80;99.90
7129;DHT22;3606;52.930;8.644;2024-02-21T05:58:42;8.80;99.90
7129;DHT22;3606;52.930;8.644;2024-02-21T06:01:08;8.80;99.90
7129;DHT22;3606;52.930;8.644;2024-02-21T06:03:34;8.80;99.90
7129;DHT22;3606;52.930;8.644;2024-02-21T06:06:00;8.80;99.90
7129;DHT22;3606;52.930;8.644;2024-02-21T06:08:26;8.80;99.90
7129;DHT22;3606;52.930;8.644;2024-02-21T06:10:51;8.80;99.90
7129;DHT22;3606;52.930;8.644;2024-02-21T06:13:26;8.80;99.90
7129;DHT22;3606;52.930;8.644;2024-02-21T06:15:52;8.80;99.90
7129;DHT22;3606;52.930;8.644;2024-02-21T06:18:18;8.80;99.90
7129;DHT22;3606;52.930;8.644;2024-02-21T06:20:44;8.80;99.90
7129;DHT22;3606;52.930;8.644;2024-02-21T06:23:11;8.80;99.90
7129;DHT22;3606;52.930;8.644;2024-02-21T06:25:38;8.80;99.90
7129;DHT22;3606;52.930;8.644;2024-02-21T06:28:04;8.90;99.90
7129;DHT22;3606;52.930;8.644;2024-02-21T06:30:30;8.90;99.90
7129;DHT22;3606;52.930;8.644;2024-02-21T06:32:55;8.80;99.90
7129;DHT22;3606;52.930;8.644;2024-02-21T06:35:24;8.80;99.90
7129;DHT22;3606;52.930;8.644;2024-02-21T06:37:51;8.80;99.90
7129;DHT22;3606;52.930;8.644;2024-02-21T06:40:25;8.90;99.90
7129;DHT22;3606;52.930;8.644;2024-02-21T06:42:51;8.80;99.90
7129;DHT22;3606;52.930;8.644;2024-02-21T06:45:17;8.90;99.90
7129;DHT22;3606;52.930;8.644;2024-02-21T06:47:43;8.90;99.90
7129;DHT22;3606;52.930;8.644;2024-02-21T06:50:09;8.90;99.90
7129;DHT22;3606;52.930;8.644;2024-02-21T06:52:36;8.90;99.90
7129;DHT22;3606;52.930;8.644;2024-02-21T06:55:02;8.90;99.90
7129;DHT22;3606;52.930;8.644;2024-02-21T06:57:29;8.90;99.90
7129;DHT22;3606;52.930;8.644;2024-02-21T06:59:54;8.90;99.90
7129;DHT22;3606;52.930;8.644;2024-02-21T07:02:20;8.90;99.90
7129;DHT22;3606;52.930;8.644;2024-02-21T07:04:46;8.90;99.90
7129;DHT22;3606;52.930;8.644;2024-02-21T07:07:11;8.90;99.90
7129;DHT22;3606;52.930;8.644;2024-02-21T07:09:38;8.90;99.90
7129;DHT22;3606;52.930;8.644;2024-02-21T07:12:04;8.90;99.90
7129;DHT22;3606;52.930;8.644;2024-02-21T07:14:30;8.90;99.90
7129;DHT22;3606;52.930;8.644;2024-02-21T07:16:57;8.90;99.90
7129;DHT22;3606;52.930;8.644;2024-02-21T07:19:22;9.00;99.90
7129;DHT22;3606;52.930;8.644;2024-02-21T07:21:48;8.90;99.90
7129;DHT22;3606;52.930;8.644;2024-02-21T07:24:14;9.00;99.90
7129;DHT22;3606;52.930;8.644;2024-02-21T07:26:43;9.00;99.90
7129;DHT22;3606;52.930;8.644;2024-02-21T07:29:09;9.00;99.90
7129;DHT22;3606;52.930;8.644;2024-02-21T07:31:44;9.00;99.90
7129;DHT22;3606;52.930;8.644;2024-02-21T07:34:10;9.00;99.90
7129;DHT22;3606;52.930;8.644;2024-02-21T07:36:36;9.00;99.90
7129;DHT22;3606;52.930;8.644;2024-02-21T07:39:03;9.00;99.90
7129;DHT22;3606;52.930;8.644;2024-02-21T07:41:32;9.00;99.90
7129;DHT22;3606;52.930;8.644;2024-02-21T07:43:59;9.10;99.90
7129;DHT22;3606;52.930;8.644;2024-02-21T07:46:25;9.10;99.90
7129;DHT22;3606;52.930;8.644;2024-02-21T07:48:51;9.00;99.90
7129;DHT22;3606;52.930;8.644;2024-02-21T07:51:17;9.10;99.90
7129;DHT22;3606;52.930;8.644;2024-02-21T07:53:44;9.00;99.90
7129;DHT22;3606;52.930;8.644;2024-02-21T07:56:14;9.00;99.90
7129;DHT22;3606;52.930;8.644;2024-02-21T07:58:41;9.10;99.90
7129;DHT22;3606;52.930;8.644;2024-02-21T08:01:07;9.00;99.90
7129;DHT22;3606;52.930;8.644;2024-02-21T08:03:33;9.00;99.90
7129;DHT22;3606;52.930;8.644;2024-02-21T08:05:58;9.00;99.90
7129;DHT22;3606;52.930;8.644;2024-02-21T08:08:24;9.00;99.90
7129;DHT22;3606;52.930;8.644;2024-02-21T08:10:50;9.00;99.90
7129;DHT22;3606;52.930;8.644;2024-02-21T08:13:16;9.10;99.90
7129;DHT22;3606;52.930;8.644;2024-02-21T08:15:41;9.00;99.90
7129;DHT22;3606;52.930;8.644;2024-02-21T08:18:07;9.10;99.90
7129;DHT22;3606;52.930;8.644;2024-02-21T08:20:33;9.10;99.90
7129;DHT22;3606;52.930;8.644;2024-02-21T08:22:59;9.10;99.90
7129;DHT22;3606;52.930;8.644;2024-02-21T08:25:24;9.10;99.90
7129;DHT22;3606;52.930;8.644;2024-02-21T08:27:50;9.10;99.90
7129;DHT22;3606;52.930;8.644;2024-02-21T08:30:17;9.10;99.90
7129;DHT22;3606;52.930;8.644;2024-02-21T08:32:42;9.10;99.90
7129;DHT22;3606;52.930;8.644;2024-02-21T08:35:08;9.10;99.90
7129;DHT22;3606;52.930;8.644;2024-02-21T08:37:34;9.10;99.90
7129;DHT22;3606;52.930;8.644;2024-02-21T08:39:59;9.10;99.90
7129;DHT22;3606;52.930;8.644;2024-02-21T08:42:35;9.10;99.90
7129;DHT22;3606;52.930;8.644;2024-02-21T08:45:01;9.10;99.90
7129;DHT22;3606;52.930;8.644;2024-02-21T08:47:26;9.20;99.90
7129;DHT22;3606;52.930;8.644;2024-02-21T08:49:52;9.20;99.90
7129;DHT22;3606;52.930;8.644;2024-02-21T08:52:18;9.20;99.90
7129;DHT22;3606;52.930;8.644;2024-02-21T08:54:43;9.20;99.90
7129;DHT22;3606;52.930;8.644;2024-02-21T08:57:09;9.20;99.90
7129;DHT22;3606;52.930;8.644;2024-02-21T08:59:35;9.30;99.90
7129;DHT22;3606;52.930;8.644;2024-02-21T09:02:00;9.30;99.90
7129;DHT22;3606;52.930;8.644;2024-02-21T09:04:28;9.30;99.90
7129;DHT22;3606;52.930;8.644;2024-02-21T09:06:54;9.40;99.90
7129;DHT22;3606;52.930;8.644;2024-02-21T09:09:20;9.50;99.90
7129;DHT22;3606;52.930;8.644;2024-02-21T09:11:46;9.50;99.90
7129;DHT22;3606;52.930;8.644;2024-02-21T09:14:12;9.40;99.90
7129;DHT22;3606;52.930;8.644;2024-02-21T09:16:37;9.30;99.90
7129;DHT22;3606;52.930;8.644;2024-02-21T09:19:03;9.40;99.90
7129;DHT22;3606;52.930;8.644;2024-02-21T09:21:28;9.50;99.90
7129;DHT22;3606;52.930;8.644;2024-02-21T09:23:54;9.40;99.90
7129;DHT22;3606;52.930;8.644;2024-02-21T09:26:20;9.50;99.90
7129;DHT22;3606;52.930;8.644;2024-02-21T09:28:45;9.50;99.90
7129;DHT22;3606;52.930;8.644;2024-02-21T09:31:11;9.50;99.90
7129;DHT22;3606;52.930;8.644;2024-02-21T09:33:37;9.50;99.90
7129;DHT22;3606;52.930;8.644;2024-02-21T09:36:03;9.50;99.90
7129;DHT22;3606;52.930;8.644;2024-02-21T09:38:31;9.60;99.90
7129;DHT22;3606;52.930;8.644;2024-02-21T09:41:05;9.60;99.90
7129;DHT22;3606;52.930;8.644;2024-02-21T09:43:34;9.60;99.90
7129;DHT22;3606;52.930;8.644;2024-02-21T09:46:00;9.60;99.90
7129;DHT22;3606;52.930;8.644;2024-02-21T09:50:55;9.70;99.90
7129;DHT22;3606;52.930;8.644;2024-02-21T09:53:22;9.70;99.90
7129;DHT22;3606;52.930;8.644;2024-02-21T09:55:50;9.70;99.90
7129;DHT22;3606;52.930;8.644;2024-02-21T09:58:16;9.70;99.90
7129;DHT22;3606;52.930;8.644;2024-02-21T10:01:10;9.90;99.90
7129;DHT22;3606;52.930;8.644;2024-02-21T10:03:35;9.90;99.90
7129;DHT22;3606;52.930;8.644;2024-02-21T10:06:01;9.90;99.90
7129;DHT22;3606;52.930;8.644;2024-02-21T10:08:27;10.00;99.90
7129;DHT22;3606;52.930;8.644;2024-02-21T10:10:53;10.00;99.90
7129;DHT22;3606;52.930;8.644;2024-02-21T10:13:26;10.10;99.90
7129;DHT22;3606;52.930;8.644;2024-02-21T10:16:03;10.20;99.90
7129;DHT22;3606;52.930;8.644;2024-02-21T10:18:29;10.30;99.90
7129;DHT22;3606;52.930;8.644;2024-02-21T10:21:05;10.40;99.90
7129;DHT22;3606;52.930;8.644;2024-02-21T10:23:48;10.40;99.90
7129;DHT22;3606;52.930;8.644;2024-02-21T10:26:14;10.40;99.90
7129;DHT22;3606;52.930;8.644;2024-02-21T10:28:41;10.40;99.90
7129;DHT22;3606;52.930;8.644;2024-02-21T10:31:11;10.50;99.90
7129;DHT22;3606;52.930;8.644;2024-02-21T10:33:57;10.60;99.90
7129;DHT22;3606;52.930;8.644;2024-02-21T10:36:23;10.80;99.90
7129;DHT22;3606;52.930;8.644;2024-02-21T10:38:49;11.00;99.90
7129;DHT22;3606;52.930;8.644;2024-02-21T10:41:15;11.00;99.90
7129;DHT22;3606;52.930;8.644;2024-02-21T10:43:42;11.10;99.90
7129;DHT22;3606;52.930;8.644;2024-02-21T10:46:09;11.50;99.90
7129;DHT22;3606;52.930;8.644;2024-02-21T10:48:46;11.80;99.90
7129;DHT22;3606;52.930;8.644;2024-02-21T10:51:15;12.20;99.90
7129;DHT22;3606;52.930;8.644;2024-02-21T10:56:33;12.50;99.90
7129;DHT22;3606;52.930;8.644;2024-02-21T10:59:04;12.50;99.90
7129;DHT22;3606;52.930;8.644;2024-02-21T11:01:30;12.60;99.90
7129;DHT22;3606;52.930;8.644;2024-02-21T11:04:05;12.40;99.90
7129;DHT22;3606;52.930;8.644;2024-02-21T11:06:33;12.20;99.90
7129;DHT22;3606;52.930;8.644;2024-02-21T11:09:07;12.00;99.90
7129;DHT22;3606;52.930;8.644;2024-02-21T11:11:43;12.00;99.90
7129;DHT22;3606;52.930;8.644;2024-02-21T11:16:39;12.20;99.90
7129;DHT22;3606;52.930;8.644;2024-02-21T11:19:08;12.60;99.90
7129;DHT22;3606;52.930;8.644;2024-02-21T11:21:35;12.50;99.90
7129;DHT22;3606;52.930;8.644;2024-02-21T11:24:02;12.30;99.90
7129;DHT22;3606;52.930;8.644;2024-02-21T11:26:29;12.20;99.90
7129;DHT22;3606;52.930;8.644;2024-02-21T11:28:57;12.30;99.90
7129;DHT22;3606;52.930;8.644;2024-02-21T11:31:23;12.30;99.90
7129;DHT22;3606;52.930;8.644;2024-02-21T11:33:48;12.30;99.90
7129;DHT22;3606;52.930;8.644;2024-02-21T11:36:27;12.50;99.90
7129;DHT22;3606;52.930;8.644;2024-02-21T11:38:52;12.70;99.90
7129;DHT22;3606;52.930;8.644;2024-02-21T11:41:21;12.60;99.90
7129;DHT22;3606;52.930;8.644;2024-02-21T11:43:49;12.60;99.90
7129;DHT22;3606;52.930;8.644;2024-02-21T11:46:16;12.70;99.90
7129;DHT22;3606;52.930;8.644;2024-02-21T11:48:42;12.60;99.90
7129;DHT22;3606;52.930;8.644;2024-02-21T11:51:21;12.70;99.90
7129;DHT22;3606;52.930;8.644;2024-02-21T11:53:48;12.90;99.90
7129;DHT22;3606;52.930;8.644;2024-02-21T11:56:14;12.90;99.90
7129;DHT22;3606;52.930;8.644;2024-02-21T11:58:39;12.90;99.90
7129;DHT22;3606;52.930;8.644;2024-02-21T12:01:05;12.80;99.90
7129;DHT22;3606;52.930;8.644;2024-02-21T12:03:32;12.80;99.90
7129;DHT22;3606;52.930;8.644;2024-02-21T12:06:01;12.60;99.90
7129;DHT22;3606;52.930;8.644;2024-02-21T12:08:40;12.40;99.90
7129;DHT22;3606;52.930;8.644;2024-02-21T12:11:19;12.30;99.90
7129;DHT22;3606;52.930;8.644;2024-02-21T12:13:45;12.30;99.90
7129;DHT22;3606;52.930;8.644;2024-02-21T12:16:11;12.30;99.90
7129;DHT22;3606;52.930;8.644;2024-02-21T12:18:36;12.30;99.90
7129;DHT22;3606;52.930;8.644;2024-02-21T12:21:02;12.40;99.90
7129;DHT22;3606;52.930;8.644;2024-02-21T12:23:30;12.30;99.90
7129;DHT22;3606;52.930;8.644;2024-02-21T12:25:55;12.30;99.90
7129;DHT22;3606;52.930;8.644;2024-02-21T12:28:21;12.40;99.90
7129;DHT22;3606;52.930;8.644;2024-02-21T12:30:47;12.40;99.90
7129;DHT22;3606;52.930;8.644;2024-02-21T12:33:13;12.30;99.90
7129;DHT22;3606;52.930;8.644;2024-02-21T12:35:39;12.10;99.90
7129;DHT22;3606;52.930;8.644;2024-02-21T12:38:05;12.00;99.90
7129;DHT22;3606;52.930;8.644;2024-02-21T12:40:31;11.90;99.90
7129;DHT22;3606;52.930;8.644;2024-02-21T12:43:01;11.90;99.90
7129;DHT22;3606;52.930;8.644;2024-02-21T12:45:28;12.10;99.90
7129;DHT22;3606;52.930;8.644;2024-02-21T12:47:54;12.10;99.90
7129;DHT22;3606;52.930;8.644;2024-02-21T12:50:19;12.20;99.90
7129;DHT22;3606;52.930;8.644;2024-02-21T12:52:46;12.30;99.90
7129;DHT22;3606;52.930;8.644;2024-02-21T12:55:11;12.30;99.90
7129;DHT22;3606;52.930;8.644;2024-02-21T12:57:39;12.20;99.90
7129;DHT22;3606;52.930;8.644;2024-02-21T13:00:07;12.20;99.90
7129;DHT22;3606;52.930;8.644;2024-02-21T13:02:34;12.10;99.90
7129;DHT22;3606;52.930;8.644;2024-02-21T13:05:00;12.00;99.90
7129;DHT22;3606;52.930;8.644;2024-02-21T13:07:28;12.00;99.90
7129;DHT22;3606;52.930;8.644;2024-02-21T13:09:54;11.80;99.90
7129;DHT22;3606;52.930;8.644;2024-02-21T13:12:19;11.70;99.90
7129;DHT22;3606;52.930;8.644;2024-02-21T13:14:45;11.60;99.90
7129;DHT22;3606;52.930;8.644;2024-02-21T13:17:11;11.70;99.90
7129;DHT22;3606;52.930;8.644;2024-02-21T13:19:36;11.80;99.90
7129;DHT22;3606;52.930;8.644;2024-02-21T13:22:02;11.80;99.90
7129;DHT22;3606;52.930;8.644;2024-02-21T13:24:29;11.70;99.90
7129;DHT22;3606;52.930;8.644;2024-02-21T13:26:54;11.70;99.90
7129;DHT22;3606;52.930;8.644;2024-02-21T13:29:20;11.70;99.90
7129;DHT22;3606;52.930;8.644;2024-02-21T13:31:46;11.70;99.90
7129;DHT22;3606;52.930;8.644;2024-02-21T13:34:11;11.90;99.90
7129;DHT22;3606;52.930;8.644;2024-02-21T13:36:37;11.90;99.90
7129;DHT22;3606;52.930;8.644;2024-02-21T13:39:03;11.90;99.90
7129;DHT22;3606;52.930;8.644;2024-02-21T13:41:30;11.80;99.90
7129;DHT22;3606;52.930;8.644;2024-02-21T13:43:56;11.70;99.90
7129;DHT22;3606;52.930;8.644;2024-02-21T13:46:22;11.50;99.90
7129;DHT22;3606;52.930;8.644;2024-02-21T13:48:48;11.40;99.90
7129;DHT22;3606;52.930;8.644;2024-02-21T13:51:13;11.30;99.90
7129;DHT22;3606;52.930;8.644;2024-02-21T13:53:39;11.30;99.90
7129;DHT22;3606;52.930;8.644;2024-02-21T13:56:05;11.30;99.90
7129;DHT22;3606;52.930;8.644;2024-02-21T13:58:31;11.30;99.90
7129;DHT22;3606;52.930;8.644;2024-02-21T14:00:56;11.40;99.90
7129;DHT22;3606;52.930;8.644;2024-02-21T14:03:22;11.40;99.90
7129;DHT22;3606;52.930;8.644;2024-02-21T14:05:48;11.40;99.90
7129;DHT22;3606;52.930;8.644;2024-02-21T14:08:16;11.40;99.90
7129;DHT22;3606;52.930;8.644;2024-02-21T14:10:42;11.30;99.90
7129;DHT22;3606;52.930;8.644;2024-02-21T14:13:07;11.20;99.90
7129;DHT22;3606;52.930;8.644;2024-02-21T14:15:33;11.20;99.90
7129;DHT22;3606;52.930;8.644;2024-02-21T14:17:59;11.20;99.90
7129;DHT22;3606;52.930;8.644;2024-02-21T14:20:24;11.20;99.90
7129;DHT22;3606;52.930;8.644;2024-02-21T14:22:50;11.20;99.90
7129;DHT22;3606;52.930;8.644;2024-02-21T14:25:16;11.20;99.90
7129;DHT22;3606;52.930;8.644;2024-02-21T14:27:42;11.20;99.90
7129;DHT22;3606;52.930;8.644;2024-02-21T14:30:09;11.10;99.90
7129;DHT22;3606;52.930;8.644;2024-02-21T14:32:36;11.10;99.90
7129;DHT22;3606;52.930;8.644;2024-02-21T14:35:02;11.00;99.90
7129;DHT22;3606;52.930;8.644;2024-02-21T14:37:28;11.00;99.90
7129;DHT22;3606;52.930;8.644;2024-02-21T14:39:53;10.90;99.90
7129;DHT22;3606;52.930;8.644;2024-02-21T14:42:19;10.80;99.90
7129;DHT22;3606;52.930;8.644;2024-02-21T14:44:44;10.80;99.90
7129;DHT22;3606;52.930;8.644;2024-02-21T14:47:10;10.80;99.90
7129;DHT22;3606;52.930;8.644;2024-02-21T14:49:36;10.80;99.90
7129;DHT22;3606;52.930;8.644;2024-02-21T14:52:01;10.80;99.90
7129;DHT22;3606;52.930;8.644;2024-02-21T14:54:28;10.80;99.90
7129;DHT22;3606;52.930;8.644;2024-02-21T14:56:53;10.70;99.90
7129;DHT22;3606;52.930;8.644;2024-02-21T14:59:20;10.60;99.90
7129;DHT22;3606;52.930;8.644;2024-02-21T15:01:45;10.60;99.90
7129;DHT22;3606;52.930;8.644;2024-02-21T15:04:11;10.60;99.90
7129;DHT22;3606;52.930;8.644;2024-02-21T15:06:37;10.60;99.90
7129;DHT22;3606;52.930;8.644;2024-02-21T15:09:03;10.60;99.90
7129;DHT22;3606;52.930;8.644;2024-02-21T15:11:29;10.70;99.90
7129;DHT22;3606;52.930;8.644;2024-02-21T15:13:55;10.60;99.90
7129;DHT22;3606;52.930;8.644;2024-02-21T15:16:20;10.60;99.90
7129;DHT22;3606;52.930;8.644;2024-02-21T15:18:46;10.60;99.90
7129;DHT22;3606;52.930;8.644;2024-02-21T15:21:12;10.50;99.90
7129;DHT22;3606;52.930;8.644;2024-02-21T15:23:41;10.60;99.90
7129;DHT22;3606;52.930;8.644;2024-02-21T15:26:07;10.50;99.90
7129;DHT22;3606;52.930;8.644;2024-02-21T15:28:32;10.40;99.90
7129;DHT22;3606;52.930;8.644;2024-02-21T15:30:58;10.40;99.90
7129;DHT22;3606;52.930;8.644;2024-02-21T15:33:23;10.30;99.90
7129;DHT22;3606;52.930;8.644;2024-02-21T15:35:49;10.20;99.90
7129;DHT22;3606;52.930;8.644;2024-02-21T15:38:15;10.20;99.90
7129;DHT22;3606;52.930;8.644;2024-02-21T15:40:41;10.10;99.90
7129;DHT22;3606;52.930;8.644;2024-02-21T15:43:07;10.10;99.90
7129;DHT22;3606;52.930;8.644;2024-02-21T15:45:33;10.10;99.90
7129;DHT22;3606;52.930;8.644;2024-02-21T15:47:59;10.00;99.90
7129;DHT22;3606;52.930;8.644;2024-02-21T15:50:25;10.00;99.90
7129;DHT22;3606;52.930;8.644;2024-02-21T15:52:53;10.00;99.90
7129;DHT22;3606;52.930;8.644;2024-02-21T15:55:20;9.90;99.90
7129;DHT22;3606;52.930;8.644;2024-02-21T15:57:46;9.90;99.90
7129;DHT22;3606;52.930;8.644;2024-02-21T16:00:12;9.80;99.90
7129;DHT22;3606;52.930;8.644;2024-02-21T16:02:39;9.80;99.90
7129;DHT22;3606;52.930;8.644;2024-02-21T16:05:10;9.80;99.90
7129;DHT22;3606;52.930;8.644;2024-02-21T16:07:39;9.80;99.90
7129;DHT22;3606;52.930;8.644;2024-02-21T16:10:05;9.80;99.90
7129;DHT22;3606;52.930;8.644;2024-02-21T16:12:31;9.70;99.90
7129;DHT22;3606;52.930;8.644;2024-02-21T16:14:57;9.70;99.90
7129;DHT22;3606;52.930;8.644;2024-02-21T16:17:22;9.70;99.90
7129;DHT22;3606;52.930;8.644;2024-02-21T16:19:48;9.60;99.90
7129;DHT22;3606;52.930;8.644;2024-02-21T16:22:15;9.60;99.90
7129;DHT22;3606;52.930;8.644;2024-02-21T16:24:40;9.50;99.90
7129;DHT22;3606;52.930;8.644;2024-02-21T16:27:06;9.50;99.90
7129;DHT22;3606;52.930;8.644;2024-02-21T16:29:37;9.50;99.90
7129;DHT22;3606;52.930;8.644;2024-02-21T16:32:04;9.50;99.90
7129;DHT22;3606;52.930;8.644;2024-02-21T16:34:30;9.50;99.90
7129;DHT22;3606;52.930;8.644;2024-02-21T16:36:56;9.50;99.90
7129;DHT22;3606;52.930;8.644;2024-02-21T16:39:25;9.50;99.90
7129;DHT22;3606;52.930;8.644;2024-02-21T16:41:50;9.40;99.90
7129;DHT22;3606;52.930;8.644;2024-02-21T16:44:19;9.40;99.90
7129;DHT22;3606;52.930;8.644;2024-02-21T16:46:45;9.40;99.90
7129;DHT22;3606;52.930;8.644;2024-02-21T16:49:10;9.40;99.90
7129;DHT22;3606;52.930;8.644;2024-02-21T16:51:36;9.40;99.90
7129;DHT22;3606;52.930;8.644;2024-02-21T16:54:02;9.40;99.90
7129;DHT22;3606;52.930;8.644;2024-02-21T16:56:33;9.30;99.90
7129;DHT22;3606;52.930;8.644;2024-02-21T16:58:59;9.30;99.90
7129;DHT22;3606;52.930;8.644;2024-02-21T17:01:25;9.30;99.90
7129;DHT22;3606;52.930;8.644;2024-02-21T17:03:50;9.30;99.90
7129;DHT22;3606;52.930;8.644;2024-02-21T17:06:16;9.30;99.90
7129;DHT22;3606;52.930;8.644;2024-02-21T17:08:42;9.30;99.90
7129;DHT22;3606;52.930;8.644;2024-02-21T17:11:08;9.30;99.90
7129;DHT22;3606;52.930;8.644;2024-02-21T17:13:34;9.30;99.90
7129;DHT22;3606;52.930;8.644;2024-02-21T17:16:00;9.30;99.90
7129;DHT22;3606;52.930;8.644;2024-02-21T17:18:25;9.30;99.90
7129;DHT22;3606;52.930;8.644;2024-02-21T17:20:52;9.30;99.90
7129;DHT22;3606;52.930;8.644;2024-02-21T17:23:17;9.30;99.90
7129;DHT22;3606;52.930;8.644;2024-02-21T17:25:43;9.30;99.90
7129;DHT22;3606;52.930;8.644;2024-02-21T17:28:09;9.30;99.90
7129;DHT22;3606;52.930;8.644;2024-02-21T17:30:34;9.40;99.90
7129;DHT22;3606;52.930;8.644;2024-02-21T17:33:05;9.50;99.90
7129;DHT22;3606;52.930;8.644;2024-02-21T17:35:34;9.50;99.90
7129;DHT22;3606;52.930;8.644;2024-02-21T17:38:01;9.50;99.90
7129;DHT22;3606;52.930;8.644;2024-02-21T17:40:28;9.50;99.90
7129;DHT22;3606;52.930;8.644;2024-02-21T17:42:53;9.50;99.90